• Join FlightAware (Why Join?)
  • Login
  • US Flag 
03:53AM EDT


 

Airport Tracker/Info


-or-


 

Live Flight TrackerFlight Track Log ✈ FIN666 ✈ 15-Aug-2014 ✈ EKCH / CPH - EFHK / HEL

Flight Track Log - Related Links

Times and Time Zones

All times are in EDT time to prevent confusion due to time zone crossing. See the FIN666 flight status page for this flight to view local times or setup timezone preferences in your user account.

Time Position Orientation Groundspeed Altitude Reporting Facility
EDT Latitude Longitude Course Direction KTS MPH feet Rate Location/Type
07:40AM 55.8420 13.1192 49° Northeast  Level Estimated
07:41AM 55.9164 13.2747 50° Northeast  Level Estimated
07:42AM 55.9905 13.4309 50° Northeast  Level Estimated
07:43AM 56.0644 13.5877 50° Northeast  Level Estimated
07:44AM 56.1403 13.7497 50° Northeast  Level Estimated
07:45AM 56.2160 13.9124 50° Northeast  Level Estimated
07:46AM 56.2914 14.0757 50° Northeast  Level Estimated
07:47AM 56.3667 14.2396 50° Northeast  Level Estimated
07:48AM 56.4417 14.4042 50° Northeast  Level Estimated
07:49AM 56.5165 14.5695 51° Northeast  Level Estimated
07:50AM 56.5911 14.7353 51° Northeast  Level Estimated
07:51AM 56.6655 14.9019 51° Northeast  Level Estimated
07:52AM 56.7396 15.0691 51° Northeast  Level Estimated
07:53AM 56.8136 15.2370 51° Northeast  Level Estimated
07:54AM 56.8872 15.4055 51° Northeast  Level Estimated
07:55AM 56.9607 15.5747 51° Northeast  Level Estimated
07:56AM 57.0340 15.7446 52° Northeast  Level Estimated
07:57AM 57.1070 15.9151 52° Northeast  Level Estimated
07:58AM 57.1797 16.0863 52° Northeast  Level Estimated
07:59AM 57.2523 16.2582 52° Northeast  Level Estimated
08:00AM 57.3246 16.4307 52° Northeast  Level Estimated
08:01AM 57.3967 16.6040 52° Northeast  Level Estimated
08:02AM 57.4685 16.7779 52° Northeast  Level Estimated
08:03AM 57.5401 16.9525 53° Northeast  Level Estimated
08:04AM 57.6114 17.1278 53° Northeast  Level Estimated
08:05AM 57.6825 17.3038 53° Northeast  Level Estimated
08:06AM 57.7534 17.4804 53° Northeast  Level Estimated
08:07AM 57.8240 17.6578 53° Northeast  Level Estimated
08:08AM 57.8944 17.8358 53° Northeast  Level Estimated
08:09AM 57.9645 18.0146 53° Northeast  Level Estimated
08:10AM 58.0343 18.1941 54° Northeast  Level Estimated
08:11AM 58.1040 18.3742 54° Northeast  Level Estimated
08:12AM 58.1733 18.5551 54° Northeast  Level Estimated
08:13AM 58.2424 18.7366 54° Northeast  Level Estimated
08:14AM 58.3112 18.9189 54° Northeast  Level Estimated
08:15AM 58.3798 19.1019 54° Northeast  Level Estimated
08:16AM 58.4481 19.2856 55° Northeast  Level Estimated
08:17AM 58.5162 19.4700 55° Northeast  Level Estimated
08:18AM 58.5840 19.6551 55° Northeast  Level Estimated
08:19AM 58.6515 19.8409 55° Northeast  Level Estimated
08:20AM 58.7188 20.0275 55° Northeast  Level Estimated
08:21AM 58.7857 20.2148 55° Northeast  Level Estimated
08:22AM 58.8524 20.4028 55° Northeast  Level Estimated
08:23AM 58.9189 20.5915 56° Northeast  Level Estimated
08:24AM 58.9850 20.7809 56° Northeast  Level Estimated
08:25AM 59.0509 20.9711 56° Northeast  Level Estimated
08:26AM 59.1096 21.1419 56° Northeast  Level Estimated
08:27AM 59.1681 21.3132 56° Northeast  Level Estimated
08:28AM 59.2264 21.4852 56° Northeast  Level Estimated
08:29AM 59.2844 21.6577 57° Northeast  Level Estimated
08:30AM 59.3422 21.8308 57° Northeast  Level Estimated
08:31AM 59.3998 22.0046 57° Northeast  Level Estimated
08:32AM 59.4571 22.1789 57° Northeast  Level Estimated
08:33AM 59.5142 22.3537 57° Northeast  Level Estimated
08:34AM 59.5711 22.5292 57° Northeast  Level Estimated
08:35AM 59.6277 22.7053 57° Northeast  Level Estimated
08:36AM 59.6841 22.8820 58° Northeast  Level Estimated
08:37AM 59.7403 23.0592 58° Northeast  Level Estimated
08:38AM 59.7962 23.2371 58° Northeast  Level Estimated
08:39AM 59.8519 23.4156 58° Northeast  Level Estimated
08:40AM 59.9073 23.5946 58° Northeast  Level Estimated
08:41AM 59.9625 23.7743 58° Northeast  Level Estimated
08:42AM 60.0175 23.9545 59° Northeast  Level Estimated
08:43AM 60.0722 24.1354 59° Northeast  Level Estimated
08:44AM 60.1266 24.3168 59° Northeast  Level Estimated
08:45AM 60.1808 24.4988 59° Northeast  Level Estimated
08:46AM 60.2348 24.6815 59° Northeast  Level Estimated
08:47AM 60.2885 24.8647 59° Northeast  Level Estimated
08:48AM 60.3172 24.9633 60° Northeast  Level Estimated
08:49AM 60.3172 24.9633 North  Level Estimated
08:50AM 60.3172 24.9633 North  Level Estimated
08:51AM 60.3172 24.9633 North  Level Estimated
08:52AM 60.3172 24.9633 North  Level Estimated
08:53AM 60.3172 24.9633 North  Level Estimated
08:54AM 60.3172 24.9633 North  Level Estimated
08:55AM 60.3172 24.9633 North  Level Estimated
08:56AM 60.3172 24.9633 North  Level Estimated
08:57AM 60.3172 24.9633 North  Level Estimated
08:58AM 60.3172 24.9633 North  Level Estimated
08:59AM 60.3172 24.9633 North  Level Estimated
09:00AM 60.3172 24.9633 North  Level Estimated
09:01AM 60.3172 24.9633 North  Level Estimated
09:02AM 60.3172 24.9633 North  Level Estimated
09:03AM 60.3172 24.9633 North  Level Estimated
09:04AM 60.3172 24.9633 North  Level Estimated
09:05AM 60.3172 24.9633 North  Level Estimated
09:06AM 60.3172 24.9633 North  Level Estimated
09:07AM 60.3172 24.9633 North  Level Estimated
09:08AM 60.3172 24.9633 North  Level Estimated
09:09AM 60.3172 24.9633 North  Level Estimated